Time;durP1;ratioP1;P1;durP2;ratioP2;P2;SDS_P1;SDS_P2;PMS_P1;PMS_P2;Temp;Humidity;BMP_temperature;BMP_pressure;BME280_temperature;BME280_humidity;BME280_pressure;Samples;Min_cycle;Max_cycle;Signal;HPM_P1;HPM_P2
2022/06/04 00:00:50;;;;;;;0.10;0.10;;;12.70;99.90;;;;;;5019530;28;20049;-79
2022/06/04 00:03:17;;;;;;;0.00;0.00;;;12.70;99.90;;;;;;5052578;28;20484;-79
2022/06/04 00:05:47;;;;;;;0.22;0.00;;;12.60;99.90;;;;;;5036133;28;20524;-79
2022/06/04 00:08:12;;;;;;;0.00;0.00;;;12.60;99.90;;;;;;5052865;28;20044;-79
2022/06/04 00:16:23;;;;;;;0.10;0.10;;;12.50;99.90;;;;;;5052823;28;20041;-79
2022/06/04 00:18:49;;;;;;;0.00;0.00;;;12.40;99.90;;;;;;5035720;28;20412;-79
2022/06/04 00:21:15;;;;;;;0.00;0.00;;;12.40;99.90;;;;;;5053437;28;20041;-79
2022/06/04 00:23:41;;;;;;;0.00;0.00;;;12.40;99.90;;;;;;5052679;28;20041;-79
2022/06/04 00:26:10;;;;;;;0.00;0.00;;;12.40;99.90;;;;;;5036068;28;20063;-79
2022/06/04 00:28:36;;;;;;;0.00;0.00;;;12.30;99.90;;;;;;5036088;28;20049;-79
2022/06/04 00:31:02;;;;;;;0.00;0.00;;;12.30;99.90;;;;;;5052645;28;20079;-79
2022/06/04 00:33:28;;;;;;;0.38;0.00;;;12.30;99.90;;;;;;5052555;28;20056;-79
2022/06/04 00:35:56;;;;;;;0.25;0.00;;;12.30;99.90;;;;;;5035915;28;20061;-79
2022/06/04 00:38:24;;;;;;;0.80;0.70;;;12.30;99.90;;;;;;5035947;28;20063;-79
2022/06/04 00:41:09;;;;;;;0.10;0.10;;;12.30;99.90;;;;;;5036450;28;20056;-79
2022/06/04 00:44:00;;;;;;;0.00;0.00;;;12.20;99.90;;;;;;5035841;28;20045;-79
2022/06/04 00:46:41;;;;;;;0.00;0.00;;;12.20;99.90;;;;;;5052792;28;20481;-79
2022/06/04 00:49:08;;;;;;;0.00;0.00;;;12.20;99.90;;;;;;5036050;28;20515;-79
2022/06/04 00:51:34;;;;;;;0.20;0.20;;;12.20;99.90;;;;;;5035728;28;20049;-79
2022/06/04 00:54:01;;;;;;;0.00;0.00;;;12.20;99.90;;;;;;5052354;28;20052;-79
2022/06/04 00:56:27;;;;;;;0.00;0.00;;;12.10;99.90;;;;;;5035415;28;20447;-79
2022/06/04 00:59:07;;;;;;;0.00;0.00;;;12.10;99.90;;;;;;5052586;28;20041;-79
2022/06/04 01:01:45;;;;;;;0.00;0.00;;;12.10;99.90;;;;;;5036006;28;20443;-79
2022/06/04 01:04:50;;;;;;;0.00;0.00;;;12.10;99.90;;;;;;5035667;28;20044;-79
2022/06/04 01:07:49;;;;;;;0.00;0.00;;;12.00;99.90;;;;;;5053138;28;20073;-79
2022/06/04 01:10:18;;;;;;;0.00;0.00;;;12.00;99.90;;;;;;5039744;28;20067;-79
2022/06/04 01:13:00;;;;;;;0.03;0.03;;;12.00;99.90;;;;;;5056187;28;20118;-79
2022/06/04 01:15:41;;;;;;;0.00;0.00;;;11.90;99.90;;;;;;5056813;28;20072;-80
2022/06/04 01:18:31;;;;;;;0.00;0.00;;;11.90;99.90;;;;;;5039091;28;20056;-79
2022/06/04 01:21:16;;;;;;;0.10;0.10;;;11.90;99.90;;;;;;5055929;28;20084;-79
2022/06/04 01:24:05;;;;;;;0.30;0.20;;;11.90;99.90;;;;;;5039244;28;20056;-79
2022/06/04 01:26:40;;;;;;;0.20;0.20;;;11.80;99.90;;;;;;5055997;28;20052;-79
2022/06/04 01:29:13;;;;;;;0.00;0.00;;;11.80;99.90;;;;;;5055390;28;20404;-79
2022/06/04 01:31:48;;;;;;;0.10;0.10;;;11.80;99.90;;;;;;5054182;28;20049;-78
2022/06/04 01:34:18;;;;;;;0.10;0.00;;;11.70;99.90;;;;;;5054726;28;20080;-79
2022/06/04 01:36:57;;;;;;;0.00;0.00;;;11.70;99.90;;;;;;5055779;28;20535;-79
2022/06/04 01:39:26;;;;;;;0.00;0.00;;;11.70;99.90;;;;;;5055649;28;20041;-79
2022/06/04 01:41:58;;;;;;;0.00;0.00;;;11.70;99.90;;;;;;5055207;28;20080;-79
2022/06/04 01:44:32;;;;;;;0.00;0.00;;;11.70;99.90;;;;;;5038444;28;20552;-79
2022/06/04 01:47:04;;;;;;;0.00;0.00;;;11.70;99.90;;;;;;5055474;28;20044;-79
2022/06/04 01:49:45;;;;;;;0.10;0.10;;;11.70;99.90;;;;;;5038959;28;20048;-79
2022/06/04 01:52:28;;;;;;;0.00;0.00;;;11.60;99.90;;;;;;5055566;28;20049;-79
2022/06/04 01:55:04;;;;;;;0.00;0.00;;;11.60;99.90;;;;;;5054349;28;20053;-79
2022/06/04 01:57:38;;;;;;;1.95;0.20;;;11.60;99.90;;;;;;5039275;28;20045;-79
2022/06/04 02:00:10;;;;;;;0.00;0.00;;;11.50;99.90;;;;;;5055704;28;20045;-79
2022/06/04 02:03:08;;;;;;;0.00;0.00;;;11.50;99.90;;;;;;5038225;28;20118;-78
2022/06/04 02:05:50;;;;;;;0.00;0.00;;;11.50;99.90;;;;;;5054248;28;20063;-79
2022/06/04 02:08:23;;;;;;;0.10;0.10;;;11.50;99.90;;;;;;5038328;28;20041;-79
2022/06/04 02:11:08;;;;;;;0.00;0.00;;;11.50;99.90;;;;;;5055382;28;20049;-79
2022/06/04 02:13:34;;;;;;;0.00;0.00;;;11.40;99.90;;;;;;5038196;28;20060;-79
2022/06/04 02:16:25;;;;;;;0.22;0.10;;;11.40;99.90;;;;;;5038262;28;20053;-79
2022/06/04 02:18:51;;;;;;;0.30;0.00;;;11.40;99.90;;;;;;5037483;28;20128;-79
2022/06/04 02:21:18;;;;;;;0.00;0.00;;;11.40;99.90;;;;;;5055174;28;20053;-79
2022/06/04 02:23:45;;;;;;;0.00;0.00;;;11.30;99.90;;;;;;5054670;28;20374;-79
2022/06/04 02:26:11;;;;;;;0.00;0.00;;;11.30;99.90;;;;;;5037918;28;20064;-79
2022/06/04 02:28:37;;;;;;;0.85;0.20;;;11.30;99.90;;;;;;5054775;28;20041;-79
2022/06/04 02:31:18;;;;;;;0.00;0.00;;;11.30;99.90;;;;;;5037923;28;20488;-79
2022/06/04 02:33:58;;;;;;;0.00;0.00;;;11.30;99.90;;;;;;5038209;28;20111;-80
2022/06/04 02:36:47;;;;;;;0.00;0.00;;;11.30;99.90;;;;;;5038033;28;20075;-79
2022/06/04 02:39:44;;;;;;;0.00;0.00;;;11.30;99.90;;;;;;5054584;28;20485;-79
2022/06/04 02:42:13;;;;;;;0.00;0.00;;;11.30;99.90;;;;;;5035523;28;20092;-80
2022/06/04 02:44:55;;;;;;;0.63;0.25;;;11.30;99.90;;;;;;5054173;28;20127;-79
2022/06/04 02:47:29;;;;;;;7.13;1.00;;;11.30;99.90;;;;;;5038084;28;20412;-79
2022/06/04 02:50:09;;;;;;;0.00;0.00;;;11.20;99.90;;;;;;5054482;28;20052;-80
2022/06/04 02:52:36;;;;;;;0.00;0.00;;;11.20;99.90;;;;;;5038407;28;20044;-79
2022/06/04 02:55:15;;;;;;;0.05;0.00;;;11.20;99.90;;;;;;5053979;28;20132;-79
2022/06/04 02:57:46;;;;;;;0.47;0.22;;;11.20;99.90;;;;;;5038315;28;20044;-79
2022/06/04 03:00:13;;;;;;;0.00;0.00;;;11.10;99.90;;;;;;5038009;28;20056;-79
2022/06/04 03:02:39;;;;;;;0.20;0.20;;;11.10;99.90;;;;;;5037048;28;20119;-79
2022/06/04 03:05:09;;;;;;;0.00;0.00;;;11.10;99.90;;;;;;5036838;28;20428;-79
2022/06/04 03:07:40;;;;;;;0.00;0.00;;;11.10;99.90;;;;;;5037624;28;20049;-79
2022/06/04 03:10:13;;;;;;;0.10;0.10;;;11.10;99.90;;;;;;5037151;28;20096;-80
2022/06/04 03:12:38;;;;;;;1.08;0.00;;;11.10;99.90;;;;;;5054066;28;20056;-79
2022/06/04 03:15:06;;;;;;;0.00;0.00;;;11.10;99.90;;;;;;5037246;28;20394;-79
2022/06/04 03:17:32;;;;;;;1.00;0.25;;;11.10;99.90;;;;;;5053919;28;20052;-79
2022/06/04 03:19:58;;;;;;;0.00;0.00;;;11.00;99.90;;;;;;5053818;28;20037;-80
2022/06/04 03:22:24;;;;;;;0.00;0.00;;;11.10;99.90;;;;;;5053675;28;20049;-79
2022/06/04 03:24:50;;;;;;;0.00;0.00;;;11.10;99.90;;;;;;5053497;28;20499;-79
2022/06/04 03:27:15;;;;;;;0.00;0.00;;;11.00;99.90;;;;;;5053628;28;20144;-79
2022/06/04 03:29:41;;;;;;;0.00;0.00;;;11.00;99.90;;;;;;5036843;28;20041;-79
2022/06/04 03:32:07;;;;;;;0.00;0.00;;;11.00;99.90;;;;;;5053586;28;20051;-79
2022/06/04 03:34:33;;;;;;;0.85;0.22;;;11.00;99.90;;;;;;5036991;28;20107;-79
2022/06/04 03:36:59;;;;;;;0.13;0.10;;;11.00;99.90;;;;;;5053361;28;20053;-79
2022/06/04 03:39:25;;;;;;;0.10;0.10;;;10.90;99.90;;;;;;5053996;28;20045;-79
2022/06/04 03:41:50;;;;;;;0.00;0.00;;;10.90;99.90;;;;;;5053475;28;20052;-79
2022/06/04 03:44:16;;;;;;;0.08;0.08;;;11.00;99.90;;;;;;5036449;28;20132;-79
2022/06/04 03:46:42;;;;;;;0.00;0.00;;;11.00;99.90;;;;;;5036985;28;20106;-79
2022/06/04 03:49:08;;;;;;;0.00;0.00;;;11.00;99.90;;;;;;5053057;28;20049;-80
2022/06/04 03:51:34;;;;;;;0.00;0.00;;;11.00;99.90;;;;;;5036319;28;20068;-79
2022/06/04 03:53:59;;;;;;;0.08;0.08;;;11.00;99.90;;;;;;5036685;28;20059;-80
2022/06/04 03:56:25;;;;;;;0.00;0.00;;;11.00;99.90;;;;;;5036995;28;20053;-79
2022/06/04 03:58:52;;;;;;;0.60;0.55;;;11.10;99.90;;;;;;5053468;28;20041;-79
2022/06/04 04:01:20;;;;;;;0.00;0.00;;;11.10;99.90;;;;;;5052816;28;20684;-79
2022/06/04 04:03:46;;;;;;;0.00;0.00;;;11.10;99.90;;;;;;5036014;28;20108;-79
2022/06/04 04:06:15;;;;;;;0.00;0.00;;;11.20;99.90;;;;;;5036059;28;20138;-79
2022/06/04 04:08:42;;;;;;;0.90;0.22;;;11.20;99.90;;;;;;5052896;28;20120;-79
2022/06/04 04:11:13;;;;;;;0.00;0.00;;;11.20;99.90;;;;;;5052660;28;20542;-79
2022/06/04 04:13:40;;;;;;;0.00;0.00;;;11.20;99.90;;;;;;5036213;28;20111;-79
2022/06/04 04:16:06;;;;;;;1.27;0.10;;;11.20;99.90;;;;;;5036193;28;20095;-80
2022/06/04 04:18:32;;;;;;;4.28;0.52;;;11.20;99.90;;;;;;5052322;28;20392;-79
2022/06/04 04:21:07;;;;;;;0.00;0.00;;;11.20;99.90;;;;;;5052921;28;20044;-80
2022/06/04 04:23:33;;;;;;;0.85;0.85;;;11.20;99.90;;;;;;5036301;28;20041;-80
2022/06/04 04:26:00;;;;;;;0.00;0.00;;;11.30;99.90;;;;;;5036106;28;20056;-80
2022/06/04 04:28:26;;;;;;;0.00;0.00;;;11.40;99.90;;;;;;5052942;28;20094;-80
2022/06/04 04:30:52;;;;;;;0.00;0.00;;;11.30;99.90;;;;;;5053694;28;20041;-80
2022/06/04 04:33:18;;;;;;;0.00;0.00;;;11.40;99.90;;;;;;5053152;28;20044;-80
2022/06/04 04:35:44;;;;;;;0.00;0.00;;;11.40;99.90;;;;;;5053315;28;20544;-80
2022/06/04 04:38:11;;;;;;;0.10;0.10;;;11.40;99.90;;;;;;5035732;28;20519;-80
2022/06/04 04:40:37;;;;;;;0.52;0.10;;;11.40;99.90;;;;;;5035975;28;20048;-80
2022/06/04 04:43:03;;;;;;;0.00;0.00;;;11.50;99.90;;;;;;5055071;28;20051;-80
2022/06/04 04:45:29;;;;;;;4.68;1.00;;;11.50;99.90;;;;;;5056408;28;20041;-79
2022/06/04 04:47:56;;;;;;;0.63;0.40;;;11.50;99.90;;;;;;5055846;28;20493;-79
2022/06/04 04:50:33;;;;;;;0.20;0.20;;;11.50;99.90;;;;;;5040534;28;20147;-80
2022/06/04 04:53:00;;;;;;;0.47;0.15;;;11.60;99.90;;;;;;5056710;28;20045;-80
2022/06/04 04:55:25;;;;;;;0.00;0.00;;;11.60;99.90;;;;;;5056547;28;20044;-81
2022/06/04 04:57:51;;;;;;;20.38;1.02;;;11.60;99.90;;;;;;5056541;28;20457;-81
2022/06/04 05:00:18;;;;;;;0.17;0.10;;;11.70;99.90;;;;;;5056367;28;20136;-80
2022/06/04 05:02:44;;;;;;;0.00;0.00;;;11.70;99.90;;;;;;5039733;28;20065;-80
2022/06/04 05:05:11;;;;;;;0.00;0.00;;;11.80;99.90;;;;;;5056570;28;20080;-80
2022/06/04 05:07:38;;;;;;;0.00;0.00;;;11.80;99.90;;;;;;5056324;28;20385;-80
2022/06/04 05:10:05;;;;;;;0.00;0.00;;;11.80;99.90;;;;;;5056239;28;20045;-81
2022/06/04 05:12:30;;;;;;;0.38;0.38;;;11.90;99.90;;;;;;5056639;28;20110;-81
2022/06/04 05:14:56;;;;;;;0.00;0.00;;;11.90;99.90;;;;;;5039502;28;20489;-80
2022/06/04 05:17:22;;;;;;;0.00;0.00;;;12.00;99.90;;;;;;5056784;28;20037;-81
2022/06/04 05:19:48;;;;;;;0.43;0.20;;;12.00;99.90;;;;;;5056289;28;20044;-80
2022/06/04 05:22:14;;;;;;;0.00;0.00;;;12.00;99.90;;;;;;5056176;28;20041;-80
2022/06/04 05:24:40;;;;;;;0.20;0.20;;;12.10;99.90;;;;;;5056022;28;20048;-80
2022/06/04 05:27:06;;;;;;;0.17;0.10;;;12.10;99.90;;;;;;5054993;28;20052;-80
2022/06/04 05:29:33;;;;;;;0.15;0.10;;;12.20;99.90;;;;;;5056088;28;20072;-81
2022/06/04 05:31:59;;;;;;;0.00;0.00;;;12.30;99.90;;;;;;5055754;28;20404;-80
2022/06/04 05:34:26;;;;;;;0.35;0.35;;;12.40;99.90;;;;;;5039326;28;20037;-80
2022/06/04 05:36:55;;;;;;;0.00;0.00;;;12.50;99.90;;;;;;5055768;28;20485;-80
2022/06/04 05:39:22;;;;;;;0.35;0.00;;;12.60;99.90;;;;;;5056417;28;20468;-80
2022/06/04 05:41:48;;;;;;;0.00;0.00;;;12.80;99.90;;;;;;5055340;28;20051;-80
2022/06/04 05:44:14;;;;;;;0.00;0.00;;;12.90;99.90;;;;;;5038567;28;20041;-80
2022/06/04 05:46:42;;;;;;;0.00;0.00;;;13.00;99.90;;;;;;5038922;28;20041;-80
2022/06/04 05:49:14;;;;;;;0.63;0.00;;;13.10;99.90;;;;;;5038571;28;20057;-80
2022/06/04 05:51:42;;;;;;;0.10;0.10;;;13.20;99.90;;;;;;5038837;28;20106;-80
2022/06/04 05:54:08;;;;;;;0.10;0.00;;;13.30;99.90;;;;;;5038826;28;20453;-80
2022/06/04 05:56:36;;;;;;;0.00;0.00;;;13.40;99.90;;;;;;5055558;28;20369;-79
2022/06/04 05:59:05;;;;;;;0.17;0.15;;;13.50;99.90;;;;;;5038739;28;20452;-80
2022/06/04 06:01:32;;;;;;;0.00;0.00;;;13.50;99.90;;;;;;5055341;28;20049;-80
2022/06/04 06:03:58;;;;;;;0.50;0.30;;;13.60;99.90;;;;;;5055166;28;20095;-80
2022/06/04 06:06:27;;;;;;;0.00;0.00;;;13.60;99.90;;;;;;5038494;28;20053;-80
2022/06/04 06:08:54;;;;;;;0.20;0.10;;;13.60;99.90;;;;;;5038317;28;20049;-81
2022/06/04 06:11:20;;;;;;;0.00;0.00;;;13.60;99.90;;;;;;5054986;28;20041;-80
2022/06/04 06:13:47;;;;;;;0.25;0.17;;;13.60;99.90;;;;;;5054953;28;20052;-81
2022/06/04 06:16:16;;;;;;;0.00;0.00;;;13.70;99.90;;;;;;5054834;28;20497;-80
2022/06/04 06:18:42;;;;;;;0.10;0.10;;;13.80;99.90;;;;;;5054831;28;20545;-80
2022/06/04 06:21:14;;;;;;;0.00;0.00;;;13.90;99.90;;;;;;5038390;28;20045;-80
2022/06/04 06:23:40;;;;;;;0.00;0.00;;;13.90;99.90;;;;;;5037908;28;20045;-79
2022/06/04 06:26:12;;;;;;;0.00;0.00;;;14.00;99.90;;;;;;5054769;28;20415;-80
2022/06/04 06:28:39;;;;;;;0.10;0.10;;;14.10;99.90;;;;;;5038142;28;20064;-80
2022/06/04 06:31:06;;;;;;;0.00;0.00;;;14.00;99.90;;;;;;5038241;28;20052;-79
2022/06/04 06:33:32;;;;;;;0.52;0.10;;;14.10;99.90;;;;;;5038097;28;20044;-79
2022/06/04 06:36:00;;;;;;;0.05;0.05;;;14.20;99.90;;;;;;5054359;28;20481;-79
2022/06/04 06:38:27;;;;;;;0.00;0.00;;;14.20;99.90;;;;;;5038306;28;20048;-79
2022/06/04 06:40:56;;;;;;;0.00;0.00;;;14.20;99.90;;;;;;5054982;28;20052;-80
2022/06/04 06:43:31;;;;;;;0.10;0.10;;;14.30;99.90;;;;;;5037735;28;20052;-81
2022/06/04 06:46:11;;;;;;;0.00;0.00;;;14.30;99.90;;;;;;5054721;28;20453;-80
2022/06/04 06:48:40;;;;;;;0.00;0.00;;;14.40;99.90;;;;;;5037768;28;20118;-80
2022/06/04 06:51:12;;;;;;;0.10;0.10;;;14.30;99.90;;;;;;5054459;28;20485;-80
2022/06/04 06:53:38;;;;;;;0.00;0.00;;;14.40;99.90;;;;;;5054211;28;20507;-79
2022/06/04 06:56:13;;;;;;;0.52;0.40;;;14.50;99.90;;;;;;5037990;28;20044;-80
2022/06/04 06:58:39;;;;;;;;;;;14.50;99.90;;;;;;5054274;28;20559;-80
2022/06/04 07:01:05;;;;;;;0.00;0.00;;;14.60;99.90;;;;;;5054104;28;19921;-80
2022/06/04 07:03:31;;;;;;;0.00;0.00;;;14.70;99.90;;;;;;5037282;28;20084;-80
2022/06/04 07:05:57;;;;;;;0.00;0.00;;;14.90;99.90;;;;;;5053490;28;20389;-80
2022/06/04 07:08:23;;;;;;;0.03;0.03;;;15.00;99.90;;;;;;5053833;28;20110;-80
2022/06/04 07:10:49;;;;;;;0.13;0.13;;;15.00;99.90;;;;;;5053922;28;20041;-80
2022/06/04 07:13:15;;;;;;;1.30;0.57;;;15.10;99.90;;;;;;5053268;28;20045;-79
2022/06/04 07:15:43;;;;;;;0.10;0.10;;;15.20;99.90;;;;;;5037097;28;20384;-80
2022/06/04 07:18:14;;;;;;;0.00;0.00;;;15.30;99.90;;;;;;5037654;28;20401;-80
2022/06/04 07:20:40;;;;;;;0.00;0.00;;;15.40;99.90;;;;;;5037195;28;20464;-80
2022/06/04 07:23:07;;;;;;;0.52;0.08;;;15.50;99.90;;;;;;5054036;28;20045;-80
2022/06/04 07:25:33;;;;;;;0.00;0.00;;;15.60;99.90;;;;;;5053677;28;20056;-80
2022/06/04 07:27:59;;;;;;;0.00;0.00;;;15.70;99.90;;;;;;5053592;28;20041;-80
2022/06/04 07:30:25;;;;;;;0.00;0.00;;;15.80;99.90;;;;;;5037882;28;20200;-80
2022/06/04 07:32:51;;;;;;;0.00;0.00;;;16.00;99.90;;;;;;5054005;28;20136;-80
2022/06/04 07:35:17;;;;;;;0.00;0.00;;;16.10;99.90;;;;;;5053638;28;20484;-80
2022/06/04 07:37:43;;;;;;;0.20;0.10;;;16.20;99.90;;;;;;5053405;28;20116;-80
2022/06/04 07:40:10;;;;;;;0.65;0.38;;;16.30;99.90;;;;;;5037169;28;20059;-80
2022/06/04 07:42:36;;;;;;;1.30;0.65;;;16.40;99.90;;;;;;5036630;28;20059;-80
2022/06/04 07:45:01;;;;;;;0.10;0.10;;;16.50;99.90;;;;;;5052806;28;20048;-80
2022/06/04 07:47:27;;;;;;;0.47;0.40;;;16.60;99.90;;;;;;5053528;28;20040;-80
2022/06/04 07:49:57;;;;;;;1.00;0.00;;;16.80;99.90;;;;;;5036836;28;20211;-80
2022/06/04 07:52:23;;;;;;;0.00;0.00;;;16.90;99.90;;;;;;5036872;28;20434;-80
2022/06/04 07:54:48;;;;;;;0.00;0.00;;;17.00;99.90;;;;;;5036870;28;20432;-81
2022/06/04 07:57:14;;;;;;;0.00;0.00;;;17.00;99.90;;;;;;5052985;28;20052;-81
2022/06/04 07:59:40;;;;;;;0.00;0.00;;;17.10;99.90;;;;;;5053225;28;20048;-80
2022/06/04 08:02:05;;;;;;;0.00;0.00;;;17.30;99.90;;;;;;5053053;28;20052;-80
2022/06/04 08:04:31;;;;;;;0.00;0.00;;;17.40;99.90;;;;;;5036002;28;20496;-81
2022/06/04 08:06:57;;;;;;;0.00;0.00;;;17.60;99.90;;;;;;5053487;28;20374;-80
2022/06/04 08:09:24;;;;;;;0.00;0.00;;;17.70;99.90;;;;;;5036375;28;20147;-80
2022/06/04 08:11:49;;;;;;;0.00;0.00;;;17.70;99.90;;;;;;5053119;28;20099;-81
2022/06/04 08:14:21;;;;;;;0.00;0.00;;;17.60;99.90;;;;;;5053229;28;20436;-80
2022/06/04 08:17:05;;;;;;;0.60;0.10;;;17.60;99.90;;;;;;5036058;28;20079;-80
2022/06/04 08:19:32;;;;;;;0.00;0.00;;;17.60;99.90;;;;;;5036653;28;20114;-81
2022/06/04 08:21:59;;;;;;;0.47;0.25;;;17.60;99.90;;;;;;5052800;28;20049;-80
2022/06/04 08:24:25;;;;;;;0.00;0.00;;;17.80;99.90;;;;;;5052631;28;20458;-80
2022/06/04 08:26:58;;;;;;;0.00;0.00;;;17.80;99.90;;;;;;5036116;28;20080;-81
2022/06/04 08:29:25;;;;;;;0.75;0.47;;;17.80;99.90;;;;;;5053446;28;20049;-80
2022/06/04 08:31:51;;;;;;;0.77;0.45;;;17.90;99.90;;;;;;5052585;28;20508;-81
2022/06/04 08:34:16;;;;;;;0.00;0.00;;;17.90;99.90;;;;;;5052632;28;20049;-81
2022/06/04 08:36:42;;;;;;;3.40;0.40;;;17.90;99.90;;;;;;5052828;28;20041;-80
2022/06/04 08:39:08;;;;;;;0.22;0.10;;;17.90;99.90;;;;;;5053035;28;20485;-80
2022/06/04 08:41:52;;;;;;;0.00;0.00;;;17.90;99.90;;;;;;5036067;28;20503;-81
2022/06/04 08:44:45;;;;;;;0.00;0.00;;;18.00;99.90;;;;;;5052625;28;20132;-81
2022/06/04 08:47:32;;;;;;;0.65;0.38;;;18.10;99.90;;;;;;5052389;28;20554;-80
2022/06/04 08:50:13;;;;;;;0.00;0.00;;;18.30;99.90;;;;;;5052824;28;20059;-81
2022/06/04 08:52:41;;;;;;;0.08;0.08;;;18.30;99.90;;;;;;5052944;28;20045;-81
2022/06/04 08:58:38;;;;;;;0.00;0.00;;;18.50;99.90;;;;;;5052726;28;20055;-81
2022/06/04 09:01:29;;;;;;;0.00;0.00;;;18.70;99.90;;;;;;5053019;28;20049;-81
2022/06/04 09:04:19;;;;;;;0.15;0.00;;;18.70;99.90;;;;;;5052138;28;20409;-80
2022/06/04 09:06:56;;;;;;;0.00;0.00;;;18.90;99.90;;;;;;5052315;28;20066;-81
2022/06/04 09:09:45;;;;;;;0.00;0.00;;;19.00;99.90;;;;;;5036314;28;20045;-82
2022/06/04 09:12:14;;;;;;;2.63;0.52;;;19.10;99.90;;;;;;5052400;28;20080;-81
2022/06/04 09:14:48;;;;;;;0.00;0.00;;;19.00;99.90;;;;;;5052249;28;20053;-81
2022/06/04 09:17:17;;;;;;;0.20;0.20;;;19.00;99.90;;;;;;5035925;28;20132;-81
2022/06/04 09:19:51;;;;;;;0.00;0.00;;;18.90;99.90;;;;;;5052623;28;20124;-80
2022/06/04 09:22:35;;;;;;;0.00;0.00;;;18.90;99.90;;;;;;5035819;28;20139;-81
2022/06/04 09:25:01;;;;;;;0.00;0.00;;;19.00;99.90;;;;;;5035226;28;20485;-81
2022/06/04 09:28:05;;;;;;;0.00;0.00;;;19.00;99.90;;;;;;5052422;28;20047;-81
2022/06/04 09:30:45;;;;;;;0.20;0.20;;;19.20;99.90;;;;;;5018349;28;20057;-81
2022/06/04 09:33:38;;;;;;;0.00;0.00;;;19.10;99.90;;;;;;5018476;28;20049;-81
2022/06/04 09:36:04;;;;;;;0.00;0.00;;;19.10;99.90;;;;;;5002237;28;20401;-81
2022/06/04 09:38:32;;;;;;;0.10;0.00;;;19.10;99.40;;;;;;5018623;28;20409;-81
2022/06/04 09:41:01;;;;;;;0.00;0.00;;;19.10;99.90;;;;;;5018510;28;20050;-81
2022/06/04 09:43:28;;;;;;;0.00;0.00;;;19.20;99.90;;;;;;5001600;28;20111;-81
2022/06/04 09:45:58;;;;;;;0.00;0.00;;;19.20;99.90;;;;;;5002026;28;20113;-81
2022/06/04 09:48:31;;;;;;;0.00;0.00;;;19.30;99.90;;;;;;5018243;28;20053;-81
2022/06/04 09:51:01;;;;;;;0.00;0.00;;;19.40;99.90;;;;;;5018347;28;20171;-81
2022/06/04 09:53:30;;;;;;;0.00;0.00;;;19.60;99.50;;;;;;5017965;28;20497;-81
2022/06/04 09:56:30;;;;;;;0.00;0.00;;;19.90;99.90;;;;;;5018094;28;20064;-80
2022/06/04 09:59:15;;;;;;;0.00;0.00;;;20.20;99.80;;;;;;4921276;29;20103;-81
2022/06/04 10:01:54;;;;;;;1.15;0.63;;;20.40;99.30;;;;;;4921125;29;20068;-80
2022/06/04 10:04:19;;;;;;;0.00;0.00;;;20.60;98.70;;;;;;4920854;29;20496;-81
2022/06/04 10:06:45;;;;;;;0.00;0.00;;;20.70;97.50;;;;;;4940157;28;20153;-81
2022/06/04 10:12:14;;;;;;;0.00;0.00;;;20.80;98.50;;;;;;4959650;28;20138;-81
2022/06/04 10:14:42;;;;;;;0.32;0.05;;;20.90;96.80;;;;;;4976073;28;20058;-81
2022/06/04 10:17:19;;;;;;;0.00;0.00;;;21.00;98.20;;;;;;4975333;28;20046;-81
2022/06/04 10:19:52;;;;;;;0.10;0.10;;;21.10;98.60;;;;;;4942716;28;20067;-81
2022/06/04 10:22:18;;;;;;;0.00;0.00;;;21.30;98.20;;;;;;4959048;28;20065;-81
2022/06/04 10:24:59;;;;;;;0.00;0.00;;;21.40;98.40;;;;;;4943140;28;20039;-81
2022/06/04 10:27:52;;;;;;;0.00;0.00;;;21.60;97.80;;;;;;4975296;28;20475;-82
2022/06/04 10:30:29;;;;;;;0.00;0.00;;;21.70;94.80;;;;;;4975116;28;20372;-81
2022/06/04 10:33:21;;;;;;;0.00;0.00;;;21.50;94.70;;;;;;4959315;28;20082;-81
2022/06/04 10:35:52;;;;;;;0.00;0.00;;;21.60;93.90;;;;;;5052212;28;20508;-81
2022/06/04 10:38:32;;;;;;;0.00;0.00;;;21.60;96.20;;;;;;5055433;28;20136;-81
2022/06/04 10:41:26;;;;;;;0.00;0.00;;;21.80;96.00;;;;;;5053869;28;20052;-81
2022/06/04 10:44:20;;;;;;;0.00;0.00;;;22.10;95.10;;;;;;5054522;28;20041;-81
2022/06/04 10:47:03;;;;;;;0.00;0.00;;;22.30;94.50;;;;;;5054884;28;20048;-81
2022/06/04 10:49:36;;;;;;;0.00;0.00;;;22.50;95.40;;;;;;5038380;28;20044;-81
2022/06/04 10:52:27;;;;;;;0.00;0.00;;;22.70;93.30;;;;;;5054438;28;20493;-81
2022/06/04 10:55:07;;;;;;;0.00;0.00;;;22.80;91.90;;;;;;5054183;28;20492;-81
2022/06/04 10:57:38;;;;;;;0.10;0.00;;;23.00;92.10;;;;;;5054587;28;20473;-81
2022/06/04 11:00:12;;;;;;;0.00;0.00;;;23.00;91.70;;;;;;5054455;28;20118;-81
2022/06/04 11:02:48;;;;;;;0.00;0.00;;;23.00;91.20;;;;;;5037909;28;20382;-80
2022/06/04 11:05:19;;;;;;;0.10;0.10;;;23.10;89.60;;;;;;5054420;28;20052;-81
2022/06/04 11:08:19;;;;;;;0.05;0.05;;;23.20;88.90;;;;;;5038026;28;20048;-81
2022/06/04 11:10:53;;;;;;;0.00;0.00;;;23.20;87.90;;;;;;5054206;28;20136;-81
2022/06/04 11:13:43;;;;;;;0.20;0.10;;;23.50;91.10;;;;;;5053761;28;20550;-81
2022/06/04 11:16:13;;;;;;;0.00;0.00;;;23.50;90.20;;;;;;5054167;28;20056;-81
2022/06/04 11:18:48;;;;;;;0.03;0.03;;;23.60;91.40;;;;;;5053817;28;20044;-81
2022/06/04 11:21:29;;;;;;;0.00;0.00;;;23.70;90.10;;;;;;5037501;28;20048;-81
2022/06/04 11:24:03;;;;;;;0.00;0.00;;;23.70;89.40;;;;;;5037111;28;20059;-80
2022/06/04 11:26:48;;;;;;;0.00;0.00;;;23.80;90.50;;;;;;5053889;28;20049;-82
2022/06/04 11:29:14;;;;;;;0.00;0.00;;;23.80;90.10;;;;;;5053974;28;20049;-81
2022/06/04 11:32:06;;;;;;;0.00;0.00;;;23.90;88.70;;;;;;5053593;28;20084;-81
2022/06/04 11:35:08;;;;;;;0.00;0.00;;;23.80;85.40;;;;;;5053860;28;20049;-81
2022/06/04 11:38:00;;;;;;;0.00;0.00;;;23.80;88.10;;;;;;5053877;28;20051;-81
2022/06/04 11:40:39;;;;;;;0.00;0.00;;;24.00;87.90;;;;;;5053340;28;20523;-80
2022/06/04 11:43:27;;;;;;;0.10;0.00;;;24.10;88.30;;;;;;5053661;28;20045;-81
2022/06/04 11:46:12;;;;;;;0.32;0.22;;;24.20;89.20;;;;;;5036973;28;20045;-81
2022/06/04 11:48:53;;;;;;;0.00;0.00;;;24.20;82.00;;;;;;5053386;28;20084;-81
2022/06/04 11:51:38;;;;;;;0.00;0.00;;;24.30;84.80;;;;;;5053705;28;20102;-80
2022/06/04 11:54:31;;;;;;;0.00;0.00;;;24.40;83.80;;;;;;5037112;28;20045;-81
2022/06/04 11:57:03;;;;;;;0.00;0.00;;;24.40;80.20;;;;;;5053134;28;20040;-81
2022/06/04 11:59:47;;;;;;;0.63;0.28;;;24.40;79.70;;;;;;5054019;28;20045;-81
2022/06/04 12:02:18;;;;;;;0.00;0.00;;;24.40;80.10;;;;;;5053120;28;20107;-80
2022/06/04 12:04:55;;;;;;;0.20;0.10;;;24.30;79.60;;;;;;5053188;28;20048;-80
2022/06/04 12:07:36;;;;;;;0.00;0.00;;;24.40;79.60;;;;;;5052967;28;20388;-81
2022/06/04 12:10:06;;;;;;;0.00;0.00;;;24.20;77.60;;;;;;5037102;28;20049;-81
2022/06/04 12:12:48;;;;;;;0.00;0.00;;;24.40;76.70;;;;;;5036352;28;20057;-81
2022/06/04 12:15:20;;;;;;;0.03;0.03;;;24.70;78.70;;;;;;5036458;28;20040;-81
2022/06/04 12:17:56;;;;;;;5.82;0.10;;;25.00;77.70;;;;;;5036384;28;20048;-81
2022/06/04 12:26:33;;;;;;;0.00;0.00;;;25.40;73.70;;;;;;5053532;28;20048;-81
2022/06/04 12:29:01;;;;;;;0.00;0.00;;;25.20;75.20;;;;;;5036451;28;20041;-81
2022/06/04 12:31:34;;;;;;;0.20;0.20;;;25.20;74.10;;;;;;5036376;28;20055;-82
2022/06/04 12:34:02;;;;;;;0.00;0.00;;;25.00;70.80;;;;;;5052949;28;20432;-81
2022/06/04 12:36:34;;;;;;;0.10;0.00;;;25.10;74.70;;;;;;5052650;28;20040;-81
2022/06/04 12:39:19;;;;;;;0.10;0.00;;;25.20;74.50;;;;;;5052829;28;20037;-81
2022/06/04 12:41:48;;;;;;;0.05;0.05;;;25.30;72.30;;;;;;5036340;28;20045;-81
2022/06/04 12:44:25;;;;;;;0.08;0.00;;;25.10;69.70;;;;;;5052650;28;20045;-81
2022/06/04 12:46:53;;;;;;;0.00;0.00;;;25.10;72.70;;;;;;5052399;28;20060;-81
2022/06/04 12:49:28;;;;;;;0.05;0.00;;;25.20;73.70;;;;;;5052994;28;20175;-82
2022/06/04 12:52:04;;;;;;;0.00;0.00;;;25.20;71.00;;;;;;5036607;28;20102;-82
2022/06/04 12:54:49;;;;;;;0.00;0.00;;;25.00;70.30;;;;;;5052534;28;20508;-81
2022/06/04 12:57:30;;;;;;;0.00;0.00;;;24.70;71.40;;;;;;5052655;28;20048;-81
2022/06/04 13:00:18;;;;;;;0.00;0.00;;;24.40;70.30;;;;;;5052852;28;20045;-82
2022/06/04 13:03:12;;;;;;;0.65;0.10;;;24.20;72.10;;;;;;5035770;28;20089;-82
2022/06/04 13:06:00;;;;;;;0.00;0.00;;;24.30;74.00;;;;;;5056169;28;20440;-81
2022/06/04 13:08:46;;;;;;;0.00;0.00;;;24.30;73.00;;;;;;5018983;28;20045;-82
2022/06/04 13:11:19;;;;;;;0.00;0.00;;;24.10;73.30;;;;;;5002866;28;20092;-82
2022/06/04 13:14:06;;;;;;;0.00;0.00;;;24.10;76.20;;;;;;5002727;28;20065;-81
2022/06/04 13:16:45;;;;;;;0.00;0.00;;;24.00;73.00;;;;;;5003055;28;20481;-81
2022/06/04 13:19:29;;;;;;;0.00;0.00;;;23.80;73.10;;;;;;5018824;28;20057;-81
2022/06/04 13:21:59;;;;;;;0.00;0.00;;;23.70;74.20;;;;;;5019128;28;20045;-82
2022/06/04 13:24:29;;;;;;;0.00;0.00;;;23.80;79.40;;;;;;5018821;28;20038;-81
2022/06/04 13:27:05;;;;;;;0.03;0.03;;;23.80;76.60;;;;;;5002217;28;20144;-81
2022/06/04 13:29:37;;;;;;;0.10;0.00;;;23.70;76.60;;;;;;5018584;28;20053;-81
2022/06/04 13:32:15;;;;;;;0.00;0.00;;;23.60;76.70;;;;;;5018818;28;20064;-81
2022/06/04 13:34:41;;;;;;;0.20;0.20;;;23.50;74.70;;;;;;5002586;28;20041;-81